Latest Weather Observations for Yunta

IDS60801

Issued at 1:01 pm CST Friday 6 May 2016 (issued every 30 minutes, with the page automatically refreshed every 10 minutes)

About weather observations | Map of weather stations | Latest weather observations for SA | Other Formats
Station Details ID: 020062 Name: YUNTA AIRSTRIP Lat: -32.57 Lon: 139.56 Height: 300.0 m
Data from the previous 72 hours. | See also: Recent months at Yunta
Date/Time
CST
Temp
°C
App
Temp
°C
Dew
Point
Rel
Hum
%
Delta-T
°C
Wind Press
QNH
hPa
Press
MSL
hPa
Rain
since 9 am
mm
Dir
 
Spd
km/h
Gust
km/h
Spd
kts
Gust
kts
06/01:00pm 27.5 22.5 1.1 18 12.8 N 17 32 9 17 1014.4 1014.3 0.0
06/12:30pm 27.1 21.7 1.5 19 12.5 N 19 28 10 15 1015.0 1015.0 0.0
06/12:00pm 26.4 20.8 0.9 19 12.2 N 20 28 11 15 1015.5 1015.4 0.0
06/11:30am 26.4 20.0 0.9 19 12.2 N 24 32 13 17 1015.9 1015.8 0.0
06/11:00am 25.5 18.5 2.2 22 11.4 N 28 35 15 19 1016.2 1016.1 0.0
06/10:30am 24.7 18.5 2.2 23 10.9 N 24 33 13 18 1016.5 1016.4 0.0
06/10:00am 24.2 18.2 3.5 26 10.3 N 24 30 13 16 1016.6 1016.5 0.0
06/09:30am 22.7 17.2 4.2 30 9.2 N 22 30 12 16 1016.7 1016.6 0.0
06/09:00am 21.5 16.2 5.0 34 8.2 N 22 28 12 15 1016.6 1016.5 0.0
06/08:30am 19.4 14.6 5.5 40 6.9 N 20 28 11 15 1016.5 1016.4 0.0
06/08:00am 17.5 12.9 5.8 46 5.8 N 19 22 10 12 1016.4 1016.3 0.0
06/07:30am 15.9 11.4 6.1 52 4.8 N 19 24 10 13 1015.9 1015.8 0.0
06/07:00am 15.6 10.8 5.8 52 4.8 NNW 20 24 11 13 1015.6 1015.5 0.0
06/06:30am 15.4 10.7 5.9 53 4.6 NNW 20 24 11 13 1015.2 1015.2 0.0
06/06:00am 14.8 10.3 6.1 56 4.2 NNW 19 22 10 12 1015.1 1015.1 0.0
06/05:30am 14.1 9.6 6.2 59 3.8 NNW 19 22 10 12 1015.1 1015.1 0.0
06/05:00am 14.4 9.9 6.3 58 4.0 N 19 24 10 13 1015.0 1015.0 0.0
06/04:30am 14.7 10.2 6.3 57 4.1 N 19 24 10 13 1014.9 1014.9 0.0
06/04:00am 13.8 9.6 5.9 59 3.8 N 17 20 9 11 1014.8 1014.8 0.0
06/03:30am 13.2 11.1 6.8 65 3.1 N 7 13 4 7 1014.9 1014.9 0.0
06/03:00am 14.9 10.4 6.2 56 4.3 N 19 20 10 11 1014.7 1014.6 0.0
06/02:30am 14.2 9.5 6.1 58 3.9 N 20 22 11 12 1014.7 1014.6 0.0
06/02:00am 15.0 10.6 6.6 57 4.1 N 19 22 10 12 1015.0 1015.0 0.0
06/01:30am 14.6 10.0 6.4 58 4.0 N 20 22 11 12 1015.0 1015.0 0.0
06/01:00am 14.3 9.8 5.9 57 4.1 N 19 20 10 11 1015.2 1015.2 0.0
06/12:30am 15.4 11.0 6.4 55 4.4 N 19 22 10 12 1015.3 1015.3 0.0
06/12:00am 16.0 11.6 6.4 53 4.8 NNW 19 22 10 12 1015.3 1015.3 0.0
 
Date/Time
CST
Temp
°C
App
Temp
°C
Dew
Point
Rel
Hum
%
Delta-T
°C
Wind Press
QNH
hPa
Press
MSL
hPa
Rain
since 9 am
mm
Dir
 
Spd
km/h
Gust
km/h
Spd
kts
Gust
kts
05/11:30pm 15.4 11.7 6.2 54 4.5 N 15 17 8 9 1015.2 1015.2 0.0
05/11:00pm 15.0 11.5 5.5 53 4.6 NNW 13 15 7 8 1015.1 1015.1 0.0
05/10:30pm 14.6 11.4 5.1 53 4.5 N 11 13 6 7 1015.2 1015.2 0.0
05/10:00pm 15.7 11.7 5.0 49 5.1 N 15 19 8 10 1015.5 1015.4 0.0
05/09:30pm 16.2 12.3 5.2 48 5.3 N 15 17 8 9 1015.6 1015.5 0.0
05/09:00pm 18.6 15.2 5.8 43 6.4 NW 13 19 7 10 1015.6 1015.5 0.0
05/08:30pm 18.9 15.4 5.4 41 6.7 NW 13 19 7 10 1015.5 1015.4 0.0
05/08:00pm 19.5 15.6 5.2 39 7.1 NW 15 20 8 11 1015.3 1015.3 0.0
05/07:30pm 19.3 15.4 5.4 40 6.9 NW 15 19 8 10 1015.3 1015.3 0.0
05/07:00pm 19.5 15.5 4.8 38 7.2 WNW 15 19 8 10 1015.0 1015.0 0.0
05/06:30pm 20.0 16.3 4.5 36 7.6 WNW 13 17 7 9 1014.6 1014.5 0.0
05/06:00pm 20.8 16.6 4.0 33 8.2 WNW 15 19 8 10 1014.3 1014.2 0.0
05/05:30pm 22.0 17.5 4.1 31 8.8 WNW 17 24 9 13 1013.9 1013.8 0.0
05/05:00pm 23.2 18.5 3.2 27 9.8 NW 17 26 9 14 1013.7 1013.6 0.0
05/04:30pm 23.6 18.4 3.5 27 9.9 WNW 20 28 11 15 1013.5 1013.4 0.0
05/04:00pm 23.9 20.0 5.3 30 9.5 NNW 15 20 8 11 1013.4 1013.3 0.0
05/03:30pm 24.3 19.4 5.1 29 9.8 NNW 20 30 11 16 1013.5 1013.4 0.0
05/03:00pm 25.1 20.1 4.8 27 10.4 NNW 20 30 11 16 1013.5 1013.4 0.0
05/02:30pm 24.4 19.5 5.2 29 9.8 NW 20 32 11 17 1013.8 1013.7 0.0
05/02:00pm 24.7 20.6 6.0 30 9.7 NW 17 26 9 14 1013.9 1013.8 0.0
05/01:30pm 24.1 19.5 5.5 30 9.6 NW 19 26 10 14 1014.2 1014.1 0.0
05/01:00pm 24.1 20.3 5.9 31 9.4 NW 15 20 8 11 1014.7 1014.6 0.0
05/12:30pm 23.1 19.0 6.0 33 8.8 NNW 17 28 9 15 1015.3 1015.3 0.0
05/12:00pm 22.3 18.6 6.5 36 8.2 NW 15 22 8 12 1016.0 1015.9 0.0
05/11:30am 22.2 19.1 7.2 38 7.8 NW 13 20 7 11 1016.5 1016.4 0.0
05/11:00am 21.6 18.1 7.4 40 7.4 NW 15 20 8 11 1017.1 1017.0 0.0
05/10:30am 21.1 17.6 7.3 41 7.2 NNW 15 20 8 11 1017.5 1017.4 0.0
05/10:00am 20.1 16.4 7.8 45 6.4 NNW 17 22 9 12 1017.8 1017.8 0.0
05/09:30am 18.4 14.7 8.1 51 5.4 N 17 20 9 11 1017.9 1017.9 0.0
05/09:00am 16.8 14.2 7.7 55 4.6 N 11 17 6 9 1017.8 1017.8 0.0
05/08:30am 15.0 12.0 7.5 61 3.8 N 13 17 7 9 1017.7 1017.7 0.0
05/08:00am 13.9 12.2 7.4 65 3.2 N 6 13 3 7 1017.7 1017.7 0.0
05/07:30am 9.7 8.5 4.7 71 2.3 CALM 0 2 0 1 1017.5 1017.4 0.0
05/07:00am 8.9 6.6 4.9 76 1.8 N 6 9 3 5 1017.4 1017.3 0.0
05/06:30am 7.8 6.5 4.2 78 1.6 CALM 0 4 0 2 1017.2 1017.1 0.0
05/06:00am 7.5 4.9 3.2 74 1.8 N 6 6 3 3 1017.0 1016.9 0.0
05/05:30am 8.0 6.6 3.5 73 2.0 CALM 0 0 0 0 1016.8 1016.7 0.0
05/05:00am 7.9 5.3 3.0 71 2.1 NNW 6 11 3 6 1016.7 1016.6 0.0
05/04:30am 7.7 6.2 2.8 71 2.1 CALM 0 2 0 1 1016.5 1016.4 0.0
05/04:00am 7.6 5.3 2.5 70 2.2 N 4 6 2 3 1016.5 1016.4 0.0
05/03:30am 8.1 5.5 3.4 72 2.0 N 6 7 3 4 1016.5 1016.4 0.0
05/03:00am 8.0 5.7 2.7 69 2.3 NNE 4 6 2 3 1016.7 1016.6 0.0
05/02:30am 7.9 5.6 2.8 70 2.2 N 4 7 2 4 1016.7 1016.6 0.0
05/02:00am 7.3 5.5 1.0 64 2.6 CALM 0 0 0 0 1016.7 1016.6 0.0
05/01:30am 8.7 6.4 2.9 67 2.5 NNE 4 6 2 3 1016.9 1016.8 0.0
05/01:00am 8.8 6.9 2.8 66 2.6 NE 2 4 1 2 1016.9 1016.8 0.0
05/12:30am 9.4 7.2 3.2 65 2.7 NE 4 6 2 3 1017.1 1017.0 0.0
05/12:00am 10.4 8.2 3.4 62 3.1 NNW 4 6 2 3 1017.4 1017.3 0.0
 
Date/Time
CST
Temp
°C
App
Temp
°C
Dew
Point
Rel
Hum
%
Delta-T
°C
Wind Press
QNH
hPa
Press
MSL
hPa
Rain
since 9 am
mm
Dir
 
Spd
km/h
Gust
km/h
Spd
kts
Gust
kts
04/11:30pm 10.3 9.0 4.2 66 2.8 CALM 0 2 0 1 1017.6 1017.5 0.0
04/11:00pm 12.1 10.5 4.6 60 3.5 WNW 2 6 1 3 1017.7 1017.7 0.0
04/10:30pm 12.3 9.3 4.3 58 3.7 NNW 9 15 5 8 1017.9 1017.9 0.0
04/10:00pm 13.5 11.2 4.9 56 4.1 NW 6 7 3 4 1018.0 1018.0 0.0
04/09:30pm 13.8 10.2 4.9 55 4.2 N 13 15 7 8 1018.0 1018.0 0.0
04/09:00pm 13.1 9.4 4.3 55 4.1 N 13 13 7 7 1017.9 1017.9 0.0
04/08:30pm 13.7 10.1 5.1 56 4.1 N 13 15 7 8 1017.7 1017.7 0.0
04/08:00pm 12.2 10.3 2.9 53 4.2 NNW 2 4 1 2 1017.4 1017.3 0.0
04/07:30pm 13.3 11.9 3.7 52 4.4 CALM 0 0 0 0 1017.2 1017.1 0.0
04/07:00pm 14.8 13.6 4.5 50 4.9 CALM 0 0 0 0 1017.0 1016.9 0.0
04/06:30pm 15.2 13.1 4.0 47 5.2 WSW 4 6 2 3 1016.7 1016.6 0.0
04/06:00pm 17.0 15.2 5.3 46 5.7 WNW 4 6 2 3 1016.2 1016.1 0.0
04/05:30pm 18.7 16.5 5.5 42 6.5 WNW 6 6 3 3 1016.0 1015.9 0.0
04/05:00pm 20.1 17.5 6.1 40 7.1 WNW 9 13 5 7 1015.9 1015.8 0.0
04/04:30pm 20.4 17.0 6.0 39 7.3 WNW 13 17 7 9 1015.8 1015.7 0.0
04/04:00pm 20.8 17.7 5.6 37 7.7 W 11 19 6 10 1015.7 1015.6 0.0
04/03:30pm 21.0 18.8 6.2 38 7.5 NW 7 15 4 8 1015.7 1015.6 0.0
04/03:00pm 20.4 17.3 5.6 38 7.4 NW 11 20 6 11 1015.9 1015.8 0.0
04/02:30pm 20.2 17.2 6.2 40 7.1 W 11 20 6 11 1016.0 1015.9 0.0
04/02:00pm 20.4 17.6 7.1 42 6.9 W 11 17 6 9 1016.2 1016.1 0.0
04/01:30pm 18.8 16.2 6.3 44 6.3 W 9 20 5 11 1016.6 1016.5 0.0
04/01:00pm 19.0 16.9 6.8 45 6.2 W 7 13 4 7 1016.7 1016.6 0.0
04/12:30pm 18.7 15.9 6.9 46 6.0 WSW 11 15 6 8 1017.2 1017.1 0.0
04/12:00pm 18.5 15.7 7.0 47 5.9 WSW 11 19 6 10 1017.6 1017.5 0.0
04/11:30am 17.7 15.7 7.2 50 5.3 WSW 7 19 4 10 1018.2 1018.2 0.0
04/11:00am 18.0 15.9 6.8 48 5.7 NW 7 15 4 8 1018.5 1018.5 0.0
04/10:30am 16.6 14.3 7.5 55 4.6 SW 9 15 5 8 1018.7 1018.7 0.0
04/10:00am 16.0 13.8 8.0 59 4.1 WSW 9 15 5 8 1018.7 1018.7 0.0
04/09:30am 15.1 13.0 8.1 63 3.6 WSW 9 15 5 8 1018.8 1018.8 0.0
04/09:00am 14.4 11.9 8.1 66 3.2 WSW 11 15 6 8 1018.7 1018.7 0.0
04/08:30am 13.8 12.2 8.6 71 2.6 W 7 13 4 7 1018.5 1018.5 0.0
04/08:00am 11.7 10.5 8.2 79 1.7 N 4 7 2 4 1018.1 1018.1 0.0
04/07:30am 8.4 7.6 6.4 87 0.9 CALM 0 4 0 2 1017.8 1017.8 0.0
04/07:00am 6.9 5.8 5.1 88 0.8 CALM 0 0 0 0 1017.2 1017.1 0.0
04/06:30am 7.3 5.0 5.8 90 0.7 NNW 7 9 4 5 1016.7 1016.6 0.0
04/06:00am 8.0 6.8 6.6 91 0.7 WNW 2 4 1 2 1016.4 1016.3 0.0
04/05:30am 7.8 6.4 5.6 86 1.0 WSW 2 6 1 3 1016.2 1016.1 0.0
04/05:00am 8.6 7.8 6.4 86 1.0 CALM 0 7 0 4 1015.9 1015.8 0.0
04/04:30am 9.2 7.5 6.1 81 1.4 WNW 4 4 2 2 1015.8 1015.7 0.0
04/04:00am 11.3 10.9 8.3 82 1.5 CALM 0 0 0 0 1015.3 1015.3 0.0
04/03:30am 11.1 10.6 7.8 80 1.6 CALM 0 0 0 0 1015.0 1015.0 0.0
04/03:00am 10.7 10.1 7.6 81 1.5 CALM 0 0 0 0 1015.1 1015.1 0.0
04/02:30am 9.6 8.8 6.3 80 1.6 CALM 0 0 0 0 1015.1 1015.1 0.0
04/02:00am 9.5 7.6 6.8 83 1.3 WNW 6 7 3 4 1015.0 1015.0 0.0
04/01:30am 9.6 7.5 6.0 78 1.7 W 6 7 3 4 1014.9 1014.9 0.0
04/01:00am 10.0 9.2 6.3 78 1.7 CALM 0 0 0 0 1015.0 1015.0 0.0
04/12:30am 10.1 9.4 6.8 80 1.6 CALM 0 0 0 0 1015.0 1015.0 0.0
04/12:00am 11.2 10.5 6.9 75 2.1 CALM 0 0 0 0 1014.9 1014.9 0.0
 
Date/Time
CST
Temp
°C
App
Temp
°C
Dew
Point
Rel
Hum
%
Delta-T
°C
Wind Press
QNH
hPa
Press
MSL
hPa
Rain
since 9 am
mm
Dir
 
Spd
km/h
Gust
km/h
Spd
kts
Gust
kts
03/11:30pm 12.0 11.7 8.7 80 1.7 CALM 0 0 0 0 1014.8 1014.8 0.0
03/11:00pm 12.0 11.7 8.7 80 1.7 CALM 0 0 0 0 1015.0 1015.0 0.0
03/10:30pm 12.8 12.7 9.4 80 1.8 CALM 0 0 0 0 1014.9 1014.9 0.0
03/10:00pm 12.4 12.0 8.3 76 2.1 CALM 0 0 0 0 1014.8 1014.8 0.0
03/09:30pm 14.0 12.1 9.2 73 2.5 WSW 9 11 5 6 1014.6 1014.5 0.0
03/09:00pm 15.5 13.0 9.6 68 3.1 W 13 17 7 9 1014.3 1014.2 0.0
03/08:30pm 16.0 14.3 9.9 67 3.2 W 9 13 5 7 1014.3 1014.2 0.0
03/08:00pm 15.7 13.9 9.6 67 3.2 W 9 11 5 6 1013.7 1013.6 0.0
03/07:30pm 16.6 13.4 10.0 65 3.5 W 17 20 9 11 1013.4 1013.3 0.0
03/07:00pm 17.4 14.2 10.1 62 3.9 WSW 17 26 9 14 1013.1 1013.0 0.0
03/06:30pm 19.2 14.9 9.4 53 5.3 WSW 22 30 12 16 1012.3 1012.2 0.0
03/06:00pm 19.6 15.3 9.5 52 5.4 WSW 22 35 12 19 1011.7 1011.6 0.0
03/05:30pm 20.0 14.4 8.7 48 6.0 W 28 37 15 20 1011.2 1011.1 0.0
03/05:00pm 20.7 14.1 8.7 46 6.4 W 33 44 18 24 1010.7 1010.6 0.0
03/04:30pm 21.7 14.8 7.2 39 7.6 W 33 44 18 24 1010.3 1010.2 0.0
03/04:00pm 22.2 15.0 6.0 35 8.3 W 33 46 18 25 1010.0 1009.9 0.0
03/03:30pm 22.6 16.0 6.0 34 8.5 WNW 30 41 16 22 1009.7 1009.6 0.0
03/03:00pm 22.1 15.4 5.5 34 8.4 W 30 43 16 23 1009.6 1009.5 0.0
03/02:30pm 23.3 16.1 5.7 32 9.0 W 33 46 18 25 1009.5 1009.4 0.0
03/02:21pm 22.9 15.9 6.2 34 8.6 W 32 44 17 24 1009.3 1009.2 0.0
03/02:00pm 23.2 16.9 5.6 32 9.0 WNW 28 39 15 21 1009.4 1009.3 0.0
03/01:30pm 22.7 16.0 5.6 33 8.7 WNW 30 41 16 22 1009.6 1009.5 0.0

Other Formats:

Comma delimited format used in spreadsheet applications
http://www.bom.gov.au/fwo/IDS60801/IDS60801.94684.axf

JavaScript Object Notation format (JSON) in row-major order
http://www.bom.gov.au/fwo/IDS60801/IDS60801.94684.json